KHOT/HOT METAR and TAF weather

Enter ICAO airport designator
Station Type Date Time Source
KHOT METAR 2019/04/25 08:09 UTC NOAA

KHOT 250809Z AUTO 02007KT 10SM -RA FEW055 BKN095 OVC110 17/17 A2965 RMK AO2 TSE03 PRESFR P0001 T01720172 $


Station Type Date Time Source
KHOT Decoded METAR 2019/04/25 08:09 UTC NOAA

HOT SPRINGS MEMORIAL FIELD, AR, United States (KHOT) 34-29N 093-06W 162M
Apr 25, 2019 - 04:09 AM EDT / 2019.04.25 0809 UTC
Wind: from the NNE (020 degrees) at 8 MPH (7 KT):0
Visibility: 10 mile(s):0
Sky conditions: overcast
Weather: light rain
Precipitation last hour: 0.01 inches
Temperature: 63.0 F (17.2 C)
Dew Point: 63.0 F (17.2 C)
Relative Humidity: 100%
Pressure (altimeter): 29.65 in. Hg (1004 hPa)
Pressure tendency: falling rapidly
ob: KHOT 250809Z AUTO 02007KT 10SM -RA FEW055 BKN095 OVC110 17/17 A2965 RMK AO2 TSE03 PRESFR P0001 T01720172
cycle: 8

Station Type Date Time Source
KHOT TAF 2019/04/25 07:09 UTC NOAA

TAF
AMD KHOT 250707Z 2507/2606 20003KT 2SM +RA BR VCTS BKN030CB OVC040
FM250900 11004KT 2SM -RA BR VCTS OVC015CB
FM251500 29009KT 4SM -SHRA VCTS BKN008 OVC015CB
FM252000 31010G18KT P6SM -SHRA OVC050
FM260000 29003KT P6SM OVC100

Example: see airport list